ADDS TAF Board (Experimental) INFO Settings
IDs: Format: Expanded Condensed

KCLT - Charlotte/Douglas In, NC, US

Issued at 2158 UTC 23 Jul 2016
Updated at 2303 UTC 23 Jul 2016
Time2252Z 24/00Z 24/01Z 24/02Z 24/03Z 24/04Z 24/05Z 24/06Z 24/07Z 24/08Z 24/09Z 24/10Z 24/11Z 24/12Z
Type OBS PRVL PRVL PRVL PRVL PRVL PRVL PRVL PRVL PRVL PRVL PRVL PRVL PRVL
VIS 10 >6 >6 >6 >6 >6 >6 >6 >6 >6 >6 >6 >6 >6
CIG 250 -- -- -- -- -- -- -- -- -- -- -- -- --
Cover BKN SCT SCT SCT FEW FEW FEW FEW FEW FEW FEW FEW FEW FEW
FltCat VFR VFR VFR VFR VFR VFR VFR VFR VFR VFR VFR VFR VFR VFR
WX -- -- -- -- -- -- -- -- -- -- -- -- -- --
WDir 260 190 190 190 170 170 170 170 170 170 170 170 170 170
WSpd 5 3 3 3 2 2 2 2 2 2 2 2 2 2
WGst -- -- -- -- -- -- -- -- -- -- -- -- -- --
R05/23
XWnd 3 -2 -2 -2 -2 -2 -2 -2 -2 -2 -2 -2 -2 -2
HWnd -4 -2 -2 -2 -1 -1 -1 -1 -1 -1 -1 -1 -1 -1
R18/36
XWnd -5 -1 -1 -1 0 0 0 0 0 0 0 0 0 0
HWnd 1 3 3 3 2 2 2 2 2 2 2 2 2 2

Raw TAF
KCLT 232158Z 2322/2418 20010KT P6SM VCSH FEW050 BKN250
  FM240000 19003KT P6SM FEW060 SCT250
  FM240300 17002KT P6SM FEW250
  FM241500 19004KT P6SM FEW050


Raw METAR
KCLT 232252Z 26005KT 10SM FEW045 SCT120 BKN250 31/21 A3000 RMK AO2 SLP149 CB DSNT N AND NE AND NW T03060206
KCLT 232152Z 21009KT 10SM FEW045 SCT120 BKN250 32/22 A2998 RMK AO2 TSB11E32 SLP143 TS DSIPTD CB DSNT NE AND E AND NW TCU DSNT W T03220217
KCLT 232132Z 19009KT 10SM SCT042CB SCT110 BKN250 33/22 A2997 RMK AO2 TSB11E32 TS DSIPTD CB E STNRY AND DSNT NE T03280217
KCLT 232111Z 19008KT 10SM TS SCT041CB SCT110 BKN250 32/22 A2998 RMK AO2 TSB11 OCNL LTGICCC N TS N MOV W CB NE-E MOV W T03170217
KCLT 232052Z COR 19009KT 10SM SCT042CB BKN100 BKN250 31/22 A2998 RMK AO2 SLP142 CB N AND E MOV W T03110222 55006
KCLT 232034Z 19010KT 10SM SCT050CB BKN100 BKN250 31/21 A2998 RMK AO2 CB N AND NW MOV W TCU DSNT NE-E AND W SHRA N AND NW T03110211

METAR Board
Radar Display
Forecast Discussion

TAF Board Legend

Potential Impact
Threat None Slight Moderate High
Visibility (sm) ≥5.1 5.1>X≥3 3>X≥1 <1
Ceiling (100 ft) ≥30.1 30.1>X≥10 10>X≥5 <5
Wind Speed (kt) <10 10≤X<20 20≤X<30 ≥30
Wind Gust (kt) <15 15≤X<25 25≤X<35 ≥35
Weather No Wx Reported VCTS,-TS,-FZRA,SN TS,FZRA +TS,+FZRA,+SN